Clairton, PA (15025)

10:28 PM EDT on September 02, 2015 (GMT -0400)
Jefferson Hills | | Change Station
CLOSE
Current Station
Personal Weather Station
Location: Clairton, PA
Elevation: 919 ft
Nearby Weather Stations

Elev 919 ft 40.29 °N, 79.91 °W | Updated 6 seconds ago

Partly Cloudy
Partly Cloudy
73.0 °F
Feels Like 77 °F
N
0.0
Wind Variable Wind from SSW
Gusts 0.0 mph

Today
High -- | Low -- °F
--% Chance of Precip.
Yesterday
High -- | Low -- °F
Precip. -- in
6:47 AM 7:50 PM
Waning Gibbous, 75% visible
Pressure 29.99 in
Visibility 10.0 miles
Clouds Few 6000 ft
Heat Index 77 °F
Dew Point 56 °F
Humidity 55%
Rainfall 0.07 in
Snow Depth Not available.
UV 0.0 out of 12
Pollen 10.00 out of 12
Air Quality Not available.
Flu Activity Not available.
METAR KAGC 030153Z 30004KT 10SM FEW060 25/16 A3001 RMK AO2 SLP156 T02500161
Pressure 29.99 in
Visibility 10.0 miles
Clouds Few 6000 ft
Heat Index 77 °F
Dew Point 56 °F
Humidity 55%
Rainfall 0.07 in
Snow Depth Not available.
UV 0.0 out of 12
Pollen 10.00 out of 12
Air Quality Not available.
Flu Activity Not available.
METAR KAGC 030153Z 30004KT 10SM FEW060 25/16 A3001 RMK AO2 SLP156 T02500161

10-Day Weather Forecast

×

Almanac

Astronomy

Sep. 02, 2015 Rise Set
Actual Time
Civil Twilight
Nautical Twilight
Astronomical Twilight
Moon
Length of Visible Light
Length of Day
Tomorrow will be .
, % of the Moon is Illuminated

Today's Extremes

State Highs State Lows

Community

WunderPhotos

Upload Photos

1,851,877 photos uploaded!

WunderBlogs® & News

Nearby

Air Quality

  Air Quality AQ Index Pollutant
Not available.

Snow Depth

Station Depth Elevation

Earthquake Activity

City Distance Mag. Time & Date
Minimum magnitude displayed is 2.5.

Coastal Water Temperatures

Place Temperature

Stations

Nearby Weather Stations

Station Location Temp. Windchill Dew Point Humidity Wind Precip. Elev Updated Type